Milburn, Nebraska
Current Conditions -  °F | °C
As of 10:53 AM on Thursday 27 Nov 2014 (Local Time) from KBBW Reporting Station
Clear Clear  
Wind Chill: 18°   Ceiling: Unl
Heat Index: 30°   Visibility: 10mi
Dew Point: 18°   Wind: 20mph
Humidity: 61%   Direction: 190°S
Pressure: 30.27"   Gusts: 25mph
Location:  41.6612°N, 99.7844°W
Report Text: KBBW 271653Z AUTO 19017G22KT 10SM CLR M01/M08 A3027 RMK AO2 SLP282 T10111078
Loading
Personal Weather Stations






























Interactive Weather Map New forecast layout! Learn more

10-Day Weather Forecast

Advertisements
Track Severe Weather on mobile